sensor_id;sensor_type;location;lat;lon;timestamp;P1;durP1;ratioP1;P2;durP2;ratioP2
67429;SDS011;54298;52.076;5.264;2023-11-21T00:01:09;14.5;;;6.2;;
67429;SDS011;54298;52.076;5.264;2023-11-21T00:02:45;10.3;;;5.9;;
67429;SDS011;54298;52.076;5.264;2023-11-21T00:04:22;16.5;;;6.8;;
67429;SDS011;54298;52.076;5.264;2023-11-21T00:07:35;17.3;;;7.3;;
67429;SDS011;54298;52.076;5.264;2023-11-21T00:09:11;15.7;;;6.7;;
67429;SDS011;54298;52.076;5.264;2023-11-21T00:10:47;13.5;;;7.1;;
67429;SDS011;54298;52.076;5.264;2023-11-21T00:13:59;13.4;;;6.4;;
67429;SDS011;54298;52.076;5.264;2023-11-21T00:15:35;10.5;;;5.9;;
67429;SDS011;54298;52.076;5.264;2023-11-21T00:17:11;14.9;;;6.7;;
67429;SDS011;54298;52.076;5.264;2023-11-21T00:18:47;15.2;;;6.9;;
67429;SDS011;54298;52.076;5.264;2023-11-21T00:21:59;13.4;;;6.3;;
67429;SDS011;54298;52.076;5.264;2023-11-21T00:23:35;19.91;;;6.6;;
67429;SDS011;54298;52.076;5.264;2023-11-21T00:25:12;13.7;;;6.6;;
67429;SDS011;54298;52.076;5.264;2023-11-21T00:28:25;17.3;;;6.4;;
67429;SDS011;54298;52.076;5.264;2023-11-21T00:30:02;17.7;;;6.8;;
67429;SDS011;54298;52.076;5.264;2023-11-21T00:31:39;15.9;;;6.6;;
67429;SDS011;54298;52.076;5.264;2023-11-21T00:34:51;22.2;;;7.1;;
67429;SDS011;54298;52.076;5.264;2023-11-21T00:36:27;20.3;;;7.2;;
67429;SDS011;54298;52.076;5.264;2023-11-21T00:38:03;21.2;;;7.4;;
67429;SDS011;54298;52.076;5.264;2023-11-21T00:42:51;18.5;;;6.1;;
67429;SDS011;54298;52.076;5.264;2023-11-21T00:44:28;23.3;;;6.9;;
67429;SDS011;54298;52.076;5.264;2023-11-21T00:46:04;22.0;;;7.4;;
67429;SDS011;54298;52.076;5.264;2023-11-21T00:49:16;20.0;;;7.4;;
67429;SDS011;54298;52.076;5.264;2023-11-21T00:50:52;18.5;;;6.7;;
67429;SDS011;54298;52.076;5.264;2023-11-21T00:52:28;17.2;;;6.7;;
67429;SDS011;54298;52.076;5.264;2023-11-21T00:55:41;19.61;;;7.0;;
67429;SDS011;54298;52.076;5.264;2023-11-21T00:57:17;12.1;;;6.0;;
67429;SDS011;54298;52.076;5.264;2023-11-21T00:58:53;12.4;;;6.1;;
67429;SDS011;54298;52.076;5.264;2023-11-21T01:02:06;17.3;;;7.0;;
67429;SDS011;54298;52.076;5.264;2023-11-21T01:03:42;14.0;;;6.5;;
67429;SDS011;54298;52.076;5.264;2023-11-21T01:05:18;15.4;;;6.4;;
67429;SDS011;54298;52.076;5.264;2023-11-21T01:06:54;15.9;;;7.1;;
67429;SDS011;54298;52.076;5.264;2023-11-21T01:10:06;11.9;;;5.9;;
67429;SDS011;54298;52.076;5.264;2023-11-21T01:11:43;13.4;;;6.0;;
67429;SDS011;54298;52.076;5.264;2023-11-21T01:13:19;12.6;;;6.7;;
67429;SDS011;54298;52.076;5.264;2023-11-21T01:16:31;9.9;;;6.1;;
67429;SDS011;54298;52.076;5.264;2023-11-21T01:18:07;18.61;;;6.2;;
67429;SDS011;54298;52.076;5.264;2023-11-21T01:19:44;12.2;;;6.8;;
67429;SDS011;54298;52.076;5.264;2023-11-21T01:22:56;17.5;;;6.5;;
67429;SDS011;54298;52.076;5.264;2023-11-21T01:24:32;12.8;;;6.6;;
67429;SDS011;54298;52.076;5.264;2023-11-21T01:26:08;10.4;;;6.8;;
67429;SDS011;54298;52.076;5.264;2023-11-21T01:27:44;13.9;;;6.2;;
67429;SDS011;54298;52.076;5.264;2023-11-21T01:30:56;10.4;;;6.4;;
67429;SDS011;54298;52.076;5.264;2023-11-21T01:32:32;11.3;;;6.7;;
67429;SDS011;54298;52.076;5.264;2023-11-21T01:34:08;11.3;;;6.7;;
67429;SDS011;54298;52.076;5.264;2023-11-21T01:37:21;11.8;;;6.7;;
67429;SDS011;54298;52.076;5.264;2023-11-21T01:38:57;15.6;;;7.2;;
67429;SDS011;54298;52.076;5.264;2023-11-21T01:40:33;13.3;;;7.4;;
67429;SDS011;54298;52.076;5.264;2023-11-21T01:43:45;16.4;;;7.8;;
67429;SDS011;54298;52.076;5.264;2023-11-21T01:45:21;19.8;;;7.7;;
67429;SDS011;54298;52.076;5.264;2023-11-21T01:46:57;15.2;;;6.8;;
67429;SDS011;54298;52.076;5.264;2023-11-21T01:50:13;11.0;;;6.7;;
67429;SDS011;54298;52.076;5.264;2023-11-21T01:51:51;11.7;;;6.7;;
67429;SDS011;54298;52.076;5.264;2023-11-21T01:53:27;12.2;;;7.2;;
67429;SDS011;54298;52.076;5.264;2023-11-21T01:55:04;13.5;;;7.8;;
67429;SDS011;54298;52.076;5.264;2023-11-21T01:58:21;18.61;;;7.6;;
67429;SDS011;54298;52.076;5.264;2023-11-21T01:59:58;13.6;;;7.3;;
67429;SDS011;54298;52.076;5.264;2023-11-21T02:01:37;14.2;;;8.0;;
67429;SDS011;54298;52.076;5.264;2023-11-21T02:04:49;13.9;;;7.9;;
67429;SDS011;54298;52.076;5.264;2023-11-21T02:06:25;14.0;;;7.3;;
67429;SDS011;54298;52.076;5.264;2023-11-21T02:08:01;15.0;;;8.0;;
67429;SDS011;54298;52.076;5.264;2023-11-21T02:09:37;9.5;;;7.3;;
67429;SDS011;54298;52.076;5.264;2023-11-21T02:12:50;15.9;;;7.9;;
67429;SDS011;54298;52.076;5.264;2023-11-21T02:14:27;18.8;;;7.1;;
67429;SDS011;54298;52.076;5.264;2023-11-21T02:16:04;14.7;;;6.6;;
67429;SDS011;54298;52.076;5.264;2023-11-21T02:19:17;11.9;;;7.5;;
67429;SDS011;54298;52.076;5.264;2023-11-21T02:20:55;14.1;;;7.6;;
67429;SDS011;54298;52.076;5.264;2023-11-21T02:22:32;14.2;;;7.3;;
67429;SDS011;54298;52.076;5.264;2023-11-21T02:24:15;11.5;;;7.2;;
67429;SDS011;54298;52.076;5.264;2023-11-21T02:27:27;12.2;;;6.7;;
67429;SDS011;54298;52.076;5.264;2023-11-21T02:29:03;13.2;;;6.8;;
67429;SDS011;54298;52.076;5.264;2023-11-21T02:30:39;12.4;;;7.6;;
67429;SDS011;54298;52.076;5.264;2023-11-21T02:33:52;12.4;;;7.6;;
67429;SDS011;54298;52.076;5.264;2023-11-21T02:35:28;11.9;;;6.7;;
67429;SDS011;54298;52.076;5.264;2023-11-21T02:37:04;12.8;;;7.2;;
67429;SDS011;54298;52.076;5.264;2023-11-21T02:40:16;12.0;;;6.0;;
67429;SDS011;54298;52.076;5.264;2023-11-21T02:41:52;13.4;;;6.3;;
67429;SDS011;54298;52.076;5.264;2023-11-21T02:43:28;13.4;;;7.2;;
67429;SDS011;54298;52.076;5.264;2023-11-21T02:46:42;12.6;;;7.1;;
67429;SDS011;54298;52.076;5.264;2023-11-21T02:48:18;12.4;;;6.4;;
67429;SDS011;54298;52.076;5.264;2023-11-21T02:49:54;9.0;;;5.4;;
67429;SDS011;54298;52.076;5.264;2023-11-21T02:51:31;11.0;;;6.1;;
67429;SDS011;54298;52.076;5.264;2023-11-21T02:54:44;9.0;;;6.5;;
67429;SDS011;54298;52.076;5.264;2023-11-21T02:56:20;9.0;;;6.5;;
67429;SDS011;54298;52.076;5.264;2023-11-21T02:57:56;11.6;;;6.2;;
67429;SDS011;54298;52.076;5.264;2023-11-21T03:01:08;16.2;;;7.0;;
67429;SDS011;54298;52.076;5.264;2023-11-21T03:02:44;14.7;;;7.3;;
67429;SDS011;54298;52.076;5.264;2023-11-21T03:04:20;16.11;;;6.5;;
67429;SDS011;54298;52.076;5.264;2023-11-21T03:07:32;9.9;;;6.5;;
67429;SDS011;54298;52.076;5.264;2023-11-21T03:09:09;11.2;;;6.8;;
67429;SDS011;54298;52.076;5.264;2023-11-21T03:10:45;9.71;;;5.9;;
67429;SDS011;54298;52.076;5.264;2023-11-21T03:12:21;10.5;;;5.9;;
67429;SDS011;54298;52.076;5.264;2023-11-21T03:15:33;10.0;;;6.1;;
67429;SDS011;54298;52.076;5.264;2023-11-21T03:17:09;12.0;;;6.4;;
67429;SDS011;54298;52.076;5.264;2023-11-21T03:18:45;13.0;;;6.2;;
67429;SDS011;54298;52.076;5.264;2023-11-21T03:21:57;8.71;;;5.9;;
67429;SDS011;54298;52.076;5.264;2023-11-21T03:23:33;14.6;;;6.3;;
67429;SDS011;54298;52.076;5.264;2023-11-21T03:25:09;13.0;;;5.4;;
67429;SDS011;54298;52.076;5.264;2023-11-21T03:28:22;10.8;;;5.8;;
67429;SDS011;54298;52.076;5.264;2023-11-21T03:29:58;10.4;;;5.6;;
67429;SDS011;54298;52.076;5.264;2023-11-21T03:31:34;11.3;;;5.8;;
67429;SDS011;54298;52.076;5.264;2023-11-21T03:34:53;11.4;;;5.6;;
67429;SDS011;54298;52.076;5.264;2023-11-21T03:36:31;16.4;;;6.5;;
67429;SDS011;54298;52.076;5.264;2023-11-21T03:38:07;9.81;;;5.8;;
67429;SDS011;54298;52.076;5.264;2023-11-21T03:39:45;16.8;;;6.0;;
67429;SDS011;54298;52.076;5.264;2023-11-21T03:42:57;12.8;;;6.0;;
67429;SDS011;54298;52.076;5.264;2023-11-21T03:44:33;10.7;;;4.91;;
67429;SDS011;54298;52.076;5.264;2023-11-21T03:46:10;11.7;;;5.5;;
67429;SDS011;54298;52.076;5.264;2023-11-21T03:49:22;13.5;;;5.5;;
67429;SDS011;54298;52.076;5.264;2023-11-21T03:50:58;10.3;;;5.6;;
67429;SDS011;54298;52.076;5.264;2023-11-21T03:52:34;13.8;;;5.4;;
67429;SDS011;54298;52.076;5.264;2023-11-21T03:54:10;9.5;;;5.3;;
67429;SDS011;54298;52.076;5.264;2023-11-21T03:57:22;11.3;;;5.6;;
67429;SDS011;54298;52.076;5.264;2023-11-21T03:58:58;12.0;;;5.5;;
67429;SDS011;54298;52.076;5.264;2023-11-21T04:00:34;9.4;;;5.4;;
67429;SDS011;54298;52.076;5.264;2023-11-21T04:03:47;8.5;;;5.3;;
67429;SDS011;54298;52.076;5.264;2023-11-21T04:05:23;9.6;;;5.8;;
67429;SDS011;54298;52.076;5.264;2023-11-21T04:06:59;12.5;;;5.7;;
67429;SDS011;54298;52.076;5.264;2023-11-21T04:10:11;10.9;;;5.7;;
67429;SDS011;54298;52.076;5.264;2023-11-21T04:11:47;10.4;;;5.9;;
67429;SDS011;54298;52.076;5.264;2023-11-21T04:13:23;11.4;;;5.4;;
67429;SDS011;54298;52.076;5.264;2023-11-21T04:16:35;11.4;;;5.7;;
67429;SDS011;54298;52.076;5.264;2023-11-21T04:18:11;8.6;;;5.6;;
67429;SDS011;54298;52.076;5.264;2023-11-21T04:19:47;11.5;;;5.4;;
67429;SDS011;54298;52.076;5.264;2023-11-21T04:21:24;9.71;;;5.7;;
67429;SDS011;54298;52.076;5.264;2023-11-21T04:24:36;12.4;;;5.9;;
67429;SDS011;54298;52.076;5.264;2023-11-21T04:26:12;13.0;;;5.8;;
67429;SDS011;54298;52.076;5.264;2023-11-21T04:27:48;12.3;;;6.1;;
67429;SDS011;54298;52.076;5.264;2023-11-21T04:31:00;8.6;;;5.2;;
67429;SDS011;54298;52.076;5.264;2023-11-21T04:32:36;12.0;;;5.7;;
67429;SDS011;54298;52.076;5.264;2023-11-21T04:34:12;13.4;;;5.6;;
67429;SDS011;54298;52.076;5.264;2023-11-21T04:37:24;10.5;;;5.9;;
67429;SDS011;54298;52.076;5.264;2023-11-21T04:39:01;12.1;;;5.8;;
67429;SDS011;54298;52.076;5.264;2023-11-21T04:40:37;11.9;;;5.4;;
67429;SDS011;54298;52.076;5.264;2023-11-21T04:43:49;10.0;;;5.0;;
67429;SDS011;54298;52.076;5.264;2023-11-21T04:45:25;10.8;;;6.1;;
67429;SDS011;54298;52.076;5.264;2023-11-21T04:47:01;10.6;;;6.1;;
67429;SDS011;54298;52.076;5.264;2023-11-21T04:48:38;11.0;;;5.9;;
67429;SDS011;54298;52.076;5.264;2023-11-21T04:51:50;12.1;;;5.6;;
67429;SDS011;54298;52.076;5.264;2023-11-21T04:53:26;11.8;;;5.6;;
67429;SDS011;54298;52.076;5.264;2023-11-21T04:55:03;10.0;;;5.2;;
67429;SDS011;54298;52.076;5.264;2023-11-21T04:58:16;9.71;;;5.7;;
67429;SDS011;54298;52.076;5.264;2023-11-21T04:59:53;13.3;;;6.0;;
67429;SDS011;54298;52.076;5.264;2023-11-21T05:01:29;14.0;;;5.6;;
67429;SDS011;54298;52.076;5.264;2023-11-21T05:04:42;9.71;;;5.9;;
67429;SDS011;54298;52.076;5.264;2023-11-21T05:06:18;11.8;;;6.4;;
67429;SDS011;54298;52.076;5.264;2023-11-21T05:07:54;8.71;;;5.4;;
67429;SDS011;54298;52.076;5.264;2023-11-21T05:09:30;8.31;;;5.8;;
67429;SDS011;54298;52.076;5.264;2023-11-21T05:12:42;12.4;;;4.91;;
67429;SDS011;54298;52.076;5.264;2023-11-21T05:14:19;13.4;;;6.6;;
67429;SDS011;54298;52.076;5.264;2023-11-21T05:15:55;11.5;;;5.5;;
67429;SDS011;54298;52.076;5.264;2023-11-21T05:19:08;12.8;;;6.0;;
67429;SDS011;54298;52.076;5.264;2023-11-21T05:20:44;15.1;;;6.1;;
67429;SDS011;54298;52.076;5.264;2023-11-21T05:22:20;11.2;;;6.0;;
67429;SDS011;54298;52.076;5.264;2023-11-21T05:25:33;9.9;;;5.7;;
67429;SDS011;54298;52.076;5.264;2023-11-21T05:27:09;10.3;;;5.3;;
67429;SDS011;54298;52.076;5.264;2023-11-21T05:28:45;10.4;;;5.7;;
67429;SDS011;54298;52.076;5.264;2023-11-21T05:31:58;15.2;;;6.2;;
67429;SDS011;54298;52.076;5.264;2023-11-21T05:33:34;12.5;;;6.1;;
67429;SDS011;54298;52.076;5.264;2023-11-21T05:35:10;9.5;;;4.7;;
67429;SDS011;54298;52.076;5.264;2023-11-21T05:36:46;9.9;;;5.6;;
67429;SDS011;54298;52.076;5.264;2023-11-21T05:39:58;9.71;;;5.4;;
67429;SDS011;54298;52.076;5.264;2023-11-21T05:41:34;11.3;;;5.5;;
67429;SDS011;54298;52.076;5.264;2023-11-21T05:43:10;10.8;;;5.5;;
67429;SDS011;54298;52.076;5.264;2023-11-21T05:46:22;14.5;;;5.5;;
67429;SDS011;54298;52.076;5.264;2023-11-21T05:47:58;11.3;;;5.5;;
67429;SDS011;54298;52.076;5.264;2023-11-21T05:49:34;11.4;;;5.4;;
67429;SDS011;54298;52.076;5.264;2023-11-21T05:52:47;11.1;;;4.5;;
67429;SDS011;54298;52.076;5.264;2023-11-21T05:54:23;9.21;;;5.5;;
67429;SDS011;54298;52.076;5.264;2023-11-21T05:55:59;12.7;;;5.8;;
67429;SDS011;54298;52.076;5.264;2023-11-21T05:57:36;8.0;;;5.2;;
67429;SDS011;54298;52.076;5.264;2023-11-21T06:00:50;12.8;;;5.4;;
67429;SDS011;54298;52.076;5.264;2023-11-21T06:02:26;12.3;;;5.7;;
67429;SDS011;54298;52.076;5.264;2023-11-21T06:04:02;12.5;;;5.8;;
67429;SDS011;54298;52.076;5.264;2023-11-21T06:07:14;9.9;;;5.6;;
67429;SDS011;54298;52.076;5.264;2023-11-21T06:08:51;12.5;;;5.5;;
67429;SDS011;54298;52.076;5.264;2023-11-21T06:10:27;9.5;;;5.8;;
67429;SDS011;54298;52.076;5.264;2023-11-21T06:13:39;11.9;;;5.6;;
67429;SDS011;54298;52.076;5.264;2023-11-21T06:15:15;9.21;;;4.91;;
67429;SDS011;54298;52.076;5.264;2023-11-21T06:16:51;9.6;;;5.6;;
67429;SDS011;54298;52.076;5.264;2023-11-21T06:20:03;16.7;;;6.1;;
67429;SDS011;54298;52.076;5.264;2023-11-21T06:21:44;9.81;;;5.11;;
67429;SDS011;54298;52.076;5.264;2023-11-21T06:23:21;12.4;;;5.7;;
67429;SDS011;54298;52.076;5.264;2023-11-21T06:24:57;10.4;;;5.6;;
67429;SDS011;54298;52.076;5.264;2023-11-21T06:28:10;10.4;;;5.4;;
67429;SDS011;54298;52.076;5.264;2023-11-21T06:29:46;10.8;;;5.9;;
67429;SDS011;54298;52.076;5.264;2023-11-21T06:31:22;9.9;;;5.11;;
67429;SDS011;54298;52.076;5.264;2023-11-21T06:34:34;10.1;;;5.6;;
67429;SDS011;54298;52.076;5.264;2023-11-21T06:36:10;11.2;;;6.0;;
67429;SDS011;54298;52.076;5.264;2023-11-21T06:37:46;13.1;;;5.5;;
67429;SDS011;54298;52.076;5.264;2023-11-21T06:40:58;13.1;;;5.4;;
67429;SDS011;54298;52.076;5.264;2023-11-21T06:42:34;14.1;;;5.6;;
67429;SDS011;54298;52.076;5.264;2023-11-21T06:44:10;9.81;;;5.8;;
67429;SDS011;54298;52.076;5.264;2023-11-21T06:45:47;11.9;;;6.0;;
67429;SDS011;54298;52.076;5.264;2023-11-21T06:48:59;10.0;;;5.5;;
67429;SDS011;54298;52.076;5.264;2023-11-21T06:50:35;9.1;;;5.0;;
67429;SDS011;54298;52.076;5.264;2023-11-21T06:52:11;8.6;;;4.91;;
67429;SDS011;54298;52.076;5.264;2023-11-21T06:55:23;12.2;;;5.8;;
67429;SDS011;54298;52.076;5.264;2023-11-21T06:56:59;12.3;;;6.3;;
67429;SDS011;54298;52.076;5.264;2023-11-21T06:58:35;9.0;;;5.2;;
67429;SDS011;54298;52.076;5.264;2023-11-21T07:01:50;9.1;;;5.8;;
67429;SDS011;54298;52.076;5.264;2023-11-21T07:03:27;8.4;;;5.0;;
67429;SDS011;54298;52.076;5.264;2023-11-21T07:05:03;8.0;;;4.5;;
67429;SDS011;54298;52.076;5.264;2023-11-21T07:06:40;12.0;;;5.3;;
67429;SDS011;54298;52.076;5.264;2023-11-21T07:09:52;11.8;;;6.0;;
67429;SDS011;54298;52.076;5.264;2023-11-21T07:11:28;8.0;;;5.2;;
67429;SDS011;54298;52.076;5.264;2023-11-21T07:13:04;15.2;;;6.5;;
67429;SDS011;54298;52.076;5.264;2023-11-21T07:16:16;9.0;;;5.4;;
67429;SDS011;54298;52.076;5.264;2023-11-21T07:17:52;13.5;;;5.6;;
67429;SDS011;54298;52.076;5.264;2023-11-21T07:19:28;12.1;;;5.5;;
67429;SDS011;54298;52.076;5.264;2023-11-21T07:22:41;9.1;;;5.5;;
67429;SDS011;54298;52.076;5.264;2023-11-21T07:24:17;9.0;;;5.6;;
67429;SDS011;54298;52.076;5.264;2023-11-21T07:25:53;11.7;;;5.3;;
67429;SDS011;54298;52.076;5.264;2023-11-21T07:29:05;9.1;;;5.8;;
67429;SDS011;54298;52.076;5.264;2023-11-21T07:30:42;14.2;;;7.1;;
67429;SDS011;54298;52.076;5.264;2023-11-21T07:32:18;12.5;;;6.1;;
67429;SDS011;54298;52.076;5.264;2023-11-21T07:33:54;12.3;;;6.0;;
67429;SDS011;54298;52.076;5.264;2023-11-21T07:37:07;13.6;;;6.4;;
67429;SDS011;54298;52.076;5.264;2023-11-21T07:38:44;12.2;;;6.4;;
67429;SDS011;54298;52.076;5.264;2023-11-21T07:40:20;12.3;;;6.0;;
67429;SDS011;54298;52.076;5.264;2023-11-21T07:43:32;9.1;;;5.2;;
67429;SDS011;54298;52.076;5.264;2023-11-21T07:45:08;8.6;;;5.3;;
67429;SDS011;54298;52.076;5.264;2023-11-21T07:46:44;8.71;;;4.91;;
67429;SDS011;54298;52.076;5.264;2023-11-21T07:49:56;14.0;;;7.1;;
67429;SDS011;54298;52.076;5.264;2023-11-21T07:51:32;10.1;;;6.4;;
67429;SDS011;54298;52.076;5.264;2023-11-21T07:53:08;11.3;;;6.2;;
67429;SDS011;54298;52.076;5.264;2023-11-21T07:54:44;12.8;;;5.6;;
67429;SDS011;54298;52.076;5.264;2023-11-21T07:57:56;13.7;;;5.7;;
67429;SDS011;54298;52.076;5.264;2023-11-21T07:59:33;14.0;;;6.5;;
67429;SDS011;54298;52.076;5.264;2023-11-21T08:01:09;12.0;;;6.4;;
67429;SDS011;54298;52.076;5.264;2023-11-21T08:04:21;9.81;;;5.5;;
67429;SDS011;54298;52.076;5.264;2023-11-21T08:05:57;9.21;;;5.11;;
67429;SDS011;54298;52.076;5.264;2023-11-21T08:07:34;9.71;;;5.5;;
67429;SDS011;54298;52.076;5.264;2023-11-21T08:10:46;10.1;;;5.11;;
67429;SDS011;54298;52.076;5.264;2023-11-21T08:12:22;10.8;;;5.5;;
67429;SDS011;54298;52.076;5.264;2023-11-21T08:13:58;10.8;;;5.5;;
67429;SDS011;54298;52.076;5.264;2023-11-21T08:17:11;9.0;;;4.7;;
67429;SDS011;54298;52.076;5.264;2023-11-21T08:18:47;10.5;;;5.2;;
67429;SDS011;54298;52.076;5.264;2023-11-21T08:20:23;12.2;;;5.5;;
67429;SDS011;54298;52.076;5.264;2023-11-21T08:21:59;11.1;;;4.3;;
67429;SDS011;54298;52.076;5.264;2023-11-21T08:25:11;10.8;;;4.7;;
67429;SDS011;54298;52.076;5.264;2023-11-21T08:26:47;9.5;;;5.0;;
67429;SDS011;54298;52.076;5.264;2023-11-21T08:28:23;8.71;;;4.91;;
67429;SDS011;54298;52.076;5.264;2023-11-21T08:31:35;9.71;;;4.0;;
67429;SDS011;54298;52.076;5.264;2023-11-21T08:33:12;8.4;;;4.2;;
67429;SDS011;54298;52.076;5.264;2023-11-21T08:34:48;10.7;;;4.0;;
67429;SDS011;54298;52.076;5.264;2023-11-21T08:38:02;7.4;;;3.6;;
67429;SDS011;54298;52.076;5.264;2023-11-21T08:39:38;10.8;;;3.9;;
67429;SDS011;54298;52.076;5.264;2023-11-21T08:41:14;7.9;;;3.3;;
67429;SDS011;54298;52.076;5.264;2023-11-21T08:42:50;10.0;;;3.5;;
67429;SDS011;54298;52.076;5.264;2023-11-21T08:46:02;7.7;;;4.0;;
67429;SDS011;54298;52.076;5.264;2023-11-21T08:47:38;6.2;;;4.0;;
67429;SDS011;54298;52.076;5.264;2023-11-21T08:49:14;7.7;;;3.8;;
67429;SDS011;54298;52.076;5.264;2023-11-21T08:52:27;9.9;;;3.9;;
67429;SDS011;54298;52.076;5.264;2023-11-21T08:54:03;9.9;;;3.9;;
67429;SDS011;54298;52.076;5.264;2023-11-21T08:55:39;9.81;;;3.9;;
67429;SDS011;54298;52.076;5.264;2023-11-21T08:58:51;8.9;;;3.7;;
67429;SDS011;54298;52.076;5.264;2023-11-21T09:00:27;7.6;;;3.3;;
67429;SDS011;54298;52.076;5.264;2023-11-21T09:02:03;6.5;;;3.5;;
67429;SDS011;54298;52.076;5.264;2023-11-21T09:05:15;9.31;;;3.9;;
67429;SDS011;54298;52.076;5.264;2023-11-21T09:06:51;7.8;;;5.4;;
67429;SDS011;54298;52.076;5.264;2023-11-21T09:08:27;8.5;;;4.3;;
67429;SDS011;54298;52.076;5.264;2023-11-21T09:10:04;6.8;;;4.0;;
67429;SDS011;54298;52.076;5.264;2023-11-21T09:13:17;9.1;;;4.7;;
67429;SDS011;54298;52.076;5.264;2023-11-21T09:14:53;8.6;;;4.91;;
67429;SDS011;54298;52.076;5.264;2023-11-21T09:16:29;7.5;;;4.41;;
67429;SDS011;54298;52.076;5.264;2023-11-21T09:19:41;9.21;;;3.7;;
67429;SDS011;54298;52.076;5.264;2023-11-21T09:21:17;7.5;;;3.9;;
67429;SDS011;54298;52.076;5.264;2023-11-21T09:22:53;6.7;;;4.0;;
67429;SDS011;54298;52.076;5.264;2023-11-21T09:26:05;8.2;;;4.61;;
67429;SDS011;54298;52.076;5.264;2023-11-21T09:27:41;9.31;;;4.0;;
67429;SDS011;54298;52.076;5.264;2023-11-21T09:29:18;8.5;;;4.1;;
67429;SDS011;54298;52.076;5.264;2023-11-21T09:32:30;7.4;;;4.0;;
67429;SDS011;54298;52.076;5.264;2023-11-21T09:34:06;9.81;;;4.2;;
67429;SDS011;54298;52.076;5.264;2023-11-21T09:35:42;6.7;;;3.4;;
67429;SDS011;54298;52.076;5.264;2023-11-21T09:37:18;5.7;;;3.6;;
67429;SDS011;54298;52.076;5.264;2023-11-21T09:40:30;7.2;;;4.2;;
67429;SDS011;54298;52.076;5.264;2023-11-21T09:42:08;7.6;;;3.4;;
67429;SDS011;54298;52.076;5.264;2023-11-21T09:43:46;6.5;;;3.5;;
67429;SDS011;54298;52.076;5.264;2023-11-21T09:47:08;8.81;;;3.8;;
67429;SDS011;54298;52.076;5.264;2023-11-21T09:48:50;7.0;;;4.0;;
67429;SDS011;54298;52.076;5.264;2023-11-21T09:50:27;7.2;;;4.41;;
67429;SDS011;54298;52.076;5.264;2023-11-21T09:52:04;7.5;;;4.91;;
67429;SDS011;54298;52.076;5.264;2023-11-21T09:55:26;7.7;;;4.41;;
67429;SDS011;54298;52.076;5.264;2023-11-21T09:57:03;6.9;;;4.61;;
67429;SDS011;54298;52.076;5.264;2023-11-21T09:58:40;7.3;;;4.0;;
67429;SDS011;54298;52.076;5.264;2023-11-21T10:00:16;8.6;;;4.7;;
67429;SDS011;54298;52.076;5.264;2023-11-21T10:03:31;6.4;;;3.9;;
67429;SDS011;54298;52.076;5.264;2023-11-21T10:05:11;8.2;;;4.5;;
67429;SDS011;54298;52.076;5.264;2023-11-21T10:06:47;6.1;;;4.1;;
67429;SDS011;54298;52.076;5.264;2023-11-21T10:10:00;8.71;;;4.2;;
67429;SDS011;54298;52.076;5.264;2023-11-21T10:11:39;6.2;;;4.2;;
67429;SDS011;54298;52.076;5.264;2023-11-21T10:13:16;6.3;;;4.0;;
67429;SDS011;54298;52.076;5.264;2023-11-21T10:14:53;9.1;;;4.91;;
67429;SDS011;54298;52.076;5.264;2023-11-21T10:18:09;10.7;;;4.41;;
67429;SDS011;54298;52.076;5.264;2023-11-21T10:19:47;6.3;;;4.41;;
67429;SDS011;54298;52.076;5.264;2023-11-21T10:21:24;7.9;;;4.61;;
67429;SDS011;54298;52.076;5.264;2023-11-21T10:24:37;7.9;;;4.61;;
67429;SDS011;54298;52.076;5.264;2023-11-21T10:26:13;11.6;;;4.5;;
67429;SDS011;54298;52.076;5.264;2023-11-21T10:27:49;7.4;;;4.41;;
67429;SDS011;54298;52.076;5.264;2023-11-21T10:31:06;9.0;;;4.91;;
67429;SDS011;54298;52.076;5.264;2023-11-21T10:32:42;7.9;;;4.7;;
67429;SDS011;54298;52.076;5.264;2023-11-21T10:34:19;6.8;;;4.1;;
67429;SDS011;54298;52.076;5.264;2023-11-21T10:35:56;7.1;;;4.41;;
67429;SDS011;54298;52.076;5.264;2023-11-21T10:39:09;6.7;;;4.41;;
67429;SDS011;54298;52.076;5.264;2023-11-21T10:40:50;5.8;;;3.9;;
67429;SDS011;54298;52.076;5.264;2023-11-21T10:42:27;9.1;;;3.6;;
67429;SDS011;54298;52.076;5.264;2023-11-21T10:45:39;5.7;;;3.7;;
67429;SDS011;54298;52.076;5.264;2023-11-21T10:47:16;5.3;;;3.2;;
67429;SDS011;54298;52.076;5.264;2023-11-21T10:48:52;5.9;;;3.3;;
67429;SDS011;54298;52.076;5.264;2023-11-21T10:50:28;7.2;;;3.5;;
67429;SDS011;54298;52.076;5.264;2023-11-21T10:53:40;6.5;;;3.2;;
67429;SDS011;54298;52.076;5.264;2023-11-21T10:55:17;7.7;;;3.2;;
67429;SDS011;54298;52.076;5.264;2023-11-21T10:56:56;4.1;;;3.4;;
67429;SDS011;54298;52.076;5.264;2023-11-21T11:00:12;8.2;;;3.9;;
67429;SDS011;54298;52.076;5.264;2023-11-21T11:01:51;7.1;;;4.0;;
67429;SDS011;54298;52.076;5.264;2023-11-21T11:03:28;7.1;;;4.0;;
67429;SDS011;54298;52.076;5.264;2023-11-21T11:05:04;9.6;;;3.9;;
67429;SDS011;54298;52.076;5.264;2023-11-21T11:08:18;8.5;;;4.41;;
67429;SDS011;54298;52.076;5.264;2023-11-21T11:09:58;5.7;;;3.7;;
67429;SDS011;54298;52.076;5.264;2023-11-21T11:11:34;7.9;;;4.2;;
67429;SDS011;54298;52.076;5.264;2023-11-21T11:14:47;7.7;;;4.5;;
67429;SDS011;54298;52.076;5.264;2023-11-21T11:16:24;9.6;;;4.61;;
67429;SDS011;54298;52.076;5.264;2023-11-21T11:18:00;9.9;;;5.0;;
67429;SDS011;54298;52.076;5.264;2023-11-21T11:21:18;7.9;;;4.7;;
67429;SDS011;54298;52.076;5.264;2023-11-21T11:23:09;8.1;;;4.8;;
67429;SDS011;54298;52.076;5.264;2023-11-21T11:25:14;11.0;;;5.0;;
67429;SDS011;54298;52.076;5.264;2023-11-21T11:27:07;8.71;;;5.3;;
67429;SDS011;54298;52.076;5.264;2023-11-21T11:28:53;9.31;;;5.8;;
67429;SDS011;54298;52.076;5.264;2023-11-21T11:30:41;10.21;;;5.5;;
67429;SDS011;54298;52.076;5.264;2023-11-21T11:32:30;9.5;;;6.3;;
67429;SDS011;54298;52.076;5.264;2023-11-21T11:36:03;13.0;;;5.8;;
67429;SDS011;54298;52.076;5.264;2023-11-21T11:37:44;9.4;;;6.2;;
67429;SDS011;54298;52.076;5.264;2023-11-21T11:39:27;10.8;;;6.5;;
67429;SDS011;54298;52.076;5.264;2023-11-21T11:41:05;10.5;;;5.7;;
67429;SDS011;54298;52.076;5.264;2023-11-21T11:44:46;10.3;;;6.3;;
67429;SDS011;54298;52.076;5.264;2023-11-21T11:46:40;12.4;;;5.6;;
67429;SDS011;54298;52.076;5.264;2023-11-21T11:48:22;8.31;;;5.2;;
67429;SDS011;54298;52.076;5.264;2023-11-21T11:50:00;10.3;;;6.0;;
67429;SDS011;54298;52.076;5.264;2023-11-21T11:51:39;13.1;;;6.4;;
67429;SDS011;54298;52.076;5.264;2023-11-21T11:53:15;10.9;;;6.8;;
67429;SDS011;54298;52.076;5.264;2023-11-21T11:56:29;9.9;;;6.2;;
67429;SDS011;54298;52.076;5.264;2023-11-21T11:58:07;10.0;;;5.8;;
67429;SDS011;54298;52.076;5.264;2023-11-21T12:00:06;9.81;;;5.6;;
67429;SDS011;54298;52.076;5.264;2023-11-21T12:01:45;8.4;;;5.7;;
67429;SDS011;54298;52.076;5.264;2023-11-21T12:04:58;9.31;;;6.1;;
67429;SDS011;54298;52.076;5.264;2023-11-21T12:06:34;11.2;;;5.7;;
67429;SDS011;54298;52.076;5.264;2023-11-21T12:08:11;7.9;;;5.6;;
67429;SDS011;54298;52.076;5.264;2023-11-21T12:11:28;9.6;;;5.6;;
67429;SDS011;54298;52.076;5.264;2023-11-21T12:13:06;10.1;;;5.7;;
67429;SDS011;54298;52.076;5.264;2023-11-21T12:14:44;11.0;;;6.2;;
67429;SDS011;54298;52.076;5.264;2023-11-21T12:16:21;12.0;;;6.1;;
67429;SDS011;54298;52.076;5.264;2023-11-21T12:19:33;10.5;;;5.8;;
67429;SDS011;54298;52.076;5.264;2023-11-21T12:21:09;8.6;;;5.11;;
67429;SDS011;54298;52.076;5.264;2023-11-21T12:22:46;8.81;;;5.2;;
67429;SDS011;54298;52.076;5.264;2023-11-21T12:26:00;11.6;;;6.2;;
67429;SDS011;54298;52.076;5.264;2023-11-21T12:27:36;12.2;;;6.3;;
67429;SDS011;54298;52.076;5.264;2023-11-21T12:29:12;12.2;;;6.1;;
67429;SDS011;54298;52.076;5.264;2023-11-21T12:32:24;10.9;;;6.1;;
67429;SDS011;54298;52.076;5.264;2023-11-21T12:34:00;10.3;;;5.8;;
67429;SDS011;54298;52.076;5.264;2023-11-21T12:35:36;8.9;;;5.3;;
67429;SDS011;54298;52.076;5.264;2023-11-21T12:37:13;7.2;;;5.5;;
67429;SDS011;54298;52.076;5.264;2023-11-21T12:40:25;10.3;;;6.3;;
67429;SDS011;54298;52.076;5.264;2023-11-21T12:42:02;10.7;;;6.0;;
67429;SDS011;54298;52.076;5.264;2023-11-21T12:43:39;9.9;;;6.6;;
67429;SDS011;54298;52.076;5.264;2023-11-21T12:46:56;10.3;;;6.8;;
67429;SDS011;54298;52.076;5.264;2023-11-21T12:48:32;9.5;;;5.9;;
67429;SDS011;54298;52.076;5.264;2023-11-21T12:50:08;10.21;;;6.7;;
67429;SDS011;54298;52.076;5.264;2023-11-21T12:53:21;8.81;;;6.3;;